createdAt,value
2024-01-04T00:03:19.859Z,7.50
2024-01-04T00:08:14.968Z,7.10
2024-01-04T00:13:13.556Z,7.00
2024-01-04T00:18:13.913Z,6.80
2024-01-04T00:23:13.588Z,6.80
2024-01-04T00:28:13.599Z,6.40
2024-01-04T00:33:14.016Z,7.10
2024-01-04T00:38:13.693Z,7.40
2024-01-04T00:43:13.673Z,6.30
2024-01-04T00:48:15.598Z,5.50
2024-01-04T00:53:13.537Z,5.90
2024-01-04T00:58:13.529Z,5.40
2024-01-04T01:03:15.656Z,5.80
2024-01-04T01:08:13.497Z,4.90
2024-01-04T01:13:20.169Z,4.90
2024-01-04T01:18:13.860Z,5.10
2024-01-04T01:23:13.715Z,4.80
2024-01-04T01:28:14.923Z,4.60
2024-01-04T01:33:13.927Z,4.60
2024-01-04T01:38:13.475Z,4.80
2024-01-04T01:43:13.560Z,4.40
2024-01-04T01:48:14.965Z,4.10
2024-01-04T01:53:13.637Z,4.20
2024-01-04T01:58:14.554Z,3.90
2024-01-04T02:03:17.551Z,4.30
2024-01-04T02:08:13.479Z,5.20
2024-01-04T02:13:13.645Z,4.90
2024-01-04T02:18:14.212Z,4.90
2024-01-04T02:23:16.035Z,4.70
2024-01-04T02:28:13.573Z,4.90
2024-01-04T02:33:13.672Z,5.40
2024-01-04T02:38:13.539Z,5.40
2024-01-04T02:43:13.502Z,5.50
2024-01-04T02:48:13.645Z,5.70
2024-01-04T02:53:13.485Z,5.50
2024-01-04T02:58:13.548Z,5.90
2024-01-04T03:03:13.819Z,5.40
2024-01-04T03:08:14.376Z,4.90
2024-01-04T03:13:13.468Z,5.40
2024-01-04T03:18:13.725Z,5.40
2024-01-04T03:23:13.487Z,5.50
2024-01-04T03:28:13.598Z,4.60
2024-01-04T03:33:15.630Z,4.80
2024-01-04T03:38:13.504Z,4.20
2024-01-04T03:43:13.441Z,4.10
2024-01-04T03:48:15.682Z,4.10
2024-01-04T03:53:13.752Z,3.90
2024-01-04T03:58:13.584Z,3.90
2024-01-04T04:03:17.635Z,4.20
2024-01-04T04:08:13.467Z,4.00
2024-01-04T04:13:13.468Z,3.40
2024-01-04T04:18:15.659Z,3.70
2024-01-04T04:23:13.548Z,3.60
2024-01-04T04:28:14.023Z,3.60
2024-01-04T04:33:16.138Z,4.10
2024-01-04T04:38:13.459Z,3.80
2024-01-04T04:43:13.361Z,3.90
2024-01-04T04:48:13.603Z,3.50
2024-01-04T04:53:13.409Z,4.60
2024-01-04T04:58:13.576Z,4.70
2024-01-04T05:03:13.564Z,4.20
2024-01-04T05:08:13.350Z,3.90
2024-01-04T05:13:13.461Z,4.10
2024-01-04T05:18:13.555Z,4.10
2024-01-04T05:23:13.327Z,3.90
2024-01-04T05:28:13.486Z,4.40
2024-01-04T05:33:13.728Z,4.30
2024-01-04T05:38:13.345Z,4.50
2024-01-04T05:43:13.718Z,4.30
2024-01-04T05:48:15.142Z,4.30
2024-01-04T05:53:13.275Z,4.20
2024-01-04T05:58:13.492Z,3.80
2024-01-04T06:03:13.504Z,4.20
2024-01-04T06:08:13.341Z,4.10
2024-01-04T06:13:13.469Z,3.70
2024-01-04T06:18:15.576Z,4.20
2024-01-04T06:23:13.301Z,4.00
2024-01-04T06:28:13.640Z,4.30
2024-01-04T06:33:13.398Z,3.90
2024-01-04T06:38:13.360Z,4.00
2024-01-04T06:43:13.310Z,4.00
2024-01-04T06:48:13.740Z,4.50
2024-01-04T06:53:14.543Z,4.40
2024-01-04T06:58:13.299Z,4.20
2024-01-04T07:03:13.716Z,4.60
2024-01-04T07:08:13.354Z,4.40
2024-01-04T07:13:13.400Z,4.90
2024-01-04T07:18:16.088Z,4.80
2024-01-04T07:23:13.381Z,5.10
2024-01-04T07:28:13.341Z,4.90
2024-01-04T07:33:15.383Z,5.30
2024-01-04T07:38:13.234Z,4.90
2024-01-04T07:43:13.440Z,5.20
2024-01-04T07:48:14.157Z,4.60
2024-01-04T07:53:13.195Z,5.20
2024-01-04T07:58:13.241Z,5.10
2024-01-04T08:03:13.899Z,4.90
2024-01-04T08:08:13.165Z,4.60
2024-01-04T08:13:16.583Z,5.40
2024-01-04T08:18:13.690Z,5.00
2024-01-04T08:23:13.706Z,5.20
2024-01-04T08:28:13.290Z,5.90
2024-01-04T08:33:13.729Z,5.80
2024-01-04T08:38:13.338Z,6.40
2024-01-04T08:43:13.369Z,5.30
2024-01-04T08:48:14.189Z,5.80
2024-01-04T08:53:13.298Z,6.10
2024-01-04T08:58:13.172Z,6.00
2024-01-04T09:03:13.386Z,6.40
2024-01-04T09:08:13.156Z,6.60
2024-01-04T09:13:13.600Z,5.60
2024-01-04T09:18:15.149Z,5.50
2024-01-04T09:23:13.175Z,6.40
2024-01-04T09:28:13.296Z,6.00
2024-01-04T09:33:15.965Z,6.70
2024-01-04T09:38:13.113Z,6.40
2024-01-04T09:43:15.209Z,6.60
2024-01-04T09:48:24.718Z,6.80
2024-01-04T09:53:13.773Z,5.00
2024-01-04T09:58:13.206Z,5.40
2024-01-04T10:03:15.682Z,5.80
2024-01-04T10:08:22.834Z,5.30
2024-01-04T10:13:14.107Z,5.10
2024-01-04T10:18:13.395Z,5.00
2024-01-04T10:23:13.756Z,5.10
2024-01-04T10:28:19.046Z,5.00
2024-01-04T10:33:17.930Z,5.00
2024-01-04T10:38:13.249Z,5.50
2024-01-04T10:43:18.233Z,5.00
2024-01-04T10:48:14.655Z,5.20
2024-01-04T10:53:13.685Z,5.20
2024-01-04T10:58:13.504Z,4.30
2024-01-04T11:03:13.433Z,5.30
2024-01-04T11:08:13.887Z,5.10
2024-01-04T11:13:13.314Z,6.00
2024-01-04T11:18:26.223Z,5.40
2024-01-04T11:23:27.284Z,5.50
2024-01-04T11:28:13.428Z,6.30
2024-01-04T11:33:13.972Z,6.30
2024-01-04T11:38:22.350Z,6.40
2024-01-04T11:43:13.823Z,5.80
2024-01-04T11:48:13.539Z,6.30
2024-01-04T11:53:14.703Z,6.10
2024-01-04T11:58:14.520Z,6.50
2024-01-04T12:03:15.259Z,6.40
2024-01-04T12:08:22.413Z,6.50
2024-01-04T12:13:13.005Z,6.30
2024-01-04T12:18:13.328Z,6.50
2024-01-04T12:23:16.692Z,7.20
2024-01-04T12:28:13.844Z,7.00
2024-01-04T12:33:13.238Z,6.20
2024-01-04T12:38:13.462Z,5.60
2024-01-04T12:43:13.397Z,6.50
2024-01-04T12:48:19.123Z,6.40
2024-01-04T12:53:13.136Z,5.40
2024-01-04T12:58:13.205Z,5.40
2024-01-04T13:03:13.149Z,5.70
2024-01-04T13:08:13.166Z,5.10
2024-01-04T13:13:13.845Z,5.30
2024-01-04T13:18:13.699Z,5.10
2024-01-04T13:23:13.178Z,5.00
2024-01-04T13:28:13.047Z,5.40
2024-01-04T13:33:13.184Z,5.70
2024-01-04T13:38:13.117Z,6.00
2024-01-04T13:43:14.951Z,6.60
2024-01-04T13:48:13.274Z,6.00
2024-01-04T13:53:13.278Z,5.60
2024-01-04T13:58:12.955Z,5.40
2024-01-04T14:03:16.250Z,5.40
2024-01-04T14:08:14.947Z,4.50
2024-01-04T14:13:12.933Z,3.80
2024-01-04T14:18:13.321Z,3.90
2024-01-04T14:23:13.366Z,3.90
2024-01-04T14:28:13.196Z,4.70
2024-01-04T14:33:24.021Z,3.90
2024-01-04T14:38:13.260Z,3.80
2024-01-04T14:43:13.010Z,4.10
2024-01-04T14:48:13.058Z,4.20
2024-01-04T14:53:13.930Z,4.10
2024-01-04T14:58:12.914Z,4.10
2024-01-04T15:03:13.040Z,4.20
2024-01-04T15:08:13.794Z,4.50
2024-01-04T15:13:12.902Z,4.90
2024-01-04T15:18:16.578Z,5.00
2024-01-04T15:23:13.197Z,5.60
2024-01-04T15:28:13.054Z,6.20
2024-01-04T15:33:13.053Z,6.10
2024-01-04T15:38:14.865Z,8.70
2024-01-04T15:43:14.017Z,7.10
2024-01-04T15:48:16.199Z,6.60
2024-01-04T15:53:15.086Z,6.00
2024-01-04T15:58:12.874Z,6.70
2024-01-04T16:03:12.851Z,8.10
2024-01-04T16:08:12.971Z,6.60
2024-01-04T16:13:12.923Z,5.40
2024-01-04T16:18:14.288Z,4.20
2024-01-04T16:23:13.172Z,2.30
2024-01-04T16:28:15.099Z,2.20
2024-01-04T16:33:18.091Z,2.00
2024-01-04T16:38:13.021Z,1.80
2024-01-04T16:43:12.812Z,1.90
2024-01-04T16:48:14.802Z,3.40
2024-01-04T16:53:12.851Z,1.80
2024-01-04T16:58:14.809Z,2.20
2024-01-04T17:03:14.587Z,2.40
2024-01-04T17:08:12.866Z,1.70
2024-01-04T17:13:13.184Z,1.70
2024-01-04T17:18:14.762Z,1.70
2024-01-04T17:23:14.116Z,1.80
2024-01-04T17:28:12.979Z,2.30
2024-01-04T17:33:13.032Z,2.40
2024-01-04T17:38:12.750Z,2.30
2024-01-04T17:43:12.825Z,2.00
2024-01-04T17:48:13.068Z,2.10
2024-01-04T17:53:13.151Z,3.30
2024-01-04T17:58:12.796Z,3.10
2024-01-04T18:03:15.254Z,3.10
2024-01-04T18:08:12.780Z,2.80
2024-01-04T18:13:12.831Z,2.40
2024-01-04T18:18:15.100Z,2.90
2024-01-04T18:23:13.688Z,3.00
2024-01-04T18:28:14.173Z,3.90
2024-01-04T18:33:13.029Z,3.20
2024-01-04T18:38:12.975Z,3.40
2024-01-04T18:43:13.275Z,3.60
2024-01-04T18:48:13.314Z,3.40
2024-01-04T18:53:12.808Z,3.70
2024-01-04T18:58:15.563Z,3.30
2024-01-04T19:01:09.201Z,3.30
2024-01-04T19:06:08.244Z,4.10
2024-01-04T19:11:08.623Z,3.30
2024-01-04T19:16:08.758Z,3.60
2024-01-04T19:21:08.126Z,3.60
2024-01-04T19:26:10.052Z,3.10
2024-01-04T19:31:08.388Z,2.80
2024-01-04T19:36:08.382Z,2.60
2024-01-04T19:41:09.673Z,2.70
2024-01-04T19:46:10.545Z,3.20
2024-01-04T19:51:08.419Z,3.00
2024-01-04T19:56:08.305Z,3.70
2024-01-04T20:01:08.275Z,3.80
2024-01-04T20:06:08.246Z,4.30
2024-01-04T20:11:09.386Z,3.80
2024-01-04T20:16:08.261Z,4.10
2024-01-04T20:21:08.211Z,4.00
2024-01-04T20:26:11.316Z,8.70
2024-01-04T20:31:08.359Z,6.20
2024-01-04T20:36:09.943Z,5.10
2024-01-04T20:41:08.425Z,4.50
2024-01-04T20:46:08.094Z,4.20
2024-01-04T20:51:10.521Z,3.90
2024-01-04T20:56:09.557Z,7.20
2024-01-04T21:01:08.078Z,8.60
2024-01-04T21:06:10.286Z,9.60
2024-01-04T21:11:07.998Z,10.00
2024-01-04T21:16:08.183Z,11.60
2024-01-04T21:21:09.760Z,9.00
2024-01-04T21:26:07.979Z,13.10
2024-01-04T21:31:08.165Z,14.20
2024-01-04T21:36:10.063Z,13.70
2024-01-04T21:41:08.006Z,11.20
2024-01-04T21:46:07.987Z,14.10
2024-01-04T21:51:16.285Z,14.70
2024-01-04T21:56:07.967Z,12.40
2024-01-04T22:01:08.280Z,13.90
2024-01-04T22:06:10.051Z,11.90
2024-01-04T22:11:07.915Z,12.40
2024-01-04T22:16:08.221Z,13.60
2024-01-04T22:21:08.205Z,12.50
2024-01-04T22:26:08.065Z,12.80
2024-01-04T22:31:08.065Z,8.80
2024-01-04T22:36:10.319Z,7.90
2024-01-04T22:41:08.032Z,8.00
2024-01-04T22:46:07.955Z,7.10
2024-01-04T22:51:10.017Z,7.00
2024-01-04T22:56:08.821Z,6.40
2024-01-04T23:01:07.976Z,6.40
2024-01-04T23:06:10.130Z,7.10
2024-01-04T23:11:08.094Z,6.90
2024-01-04T23:16:07.967Z,7.70
2024-01-04T23:21:10.275Z,8.50
2024-01-04T23:26:07.921Z,8.40
2024-01-04T23:31:08.071Z,8.10
2024-01-04T23:36:09.881Z,8.50
2024-01-04T23:41:07.997Z,8.30
2024-01-04T23:46:07.862Z,9.00
2024-01-04T23:51:10.100Z,8.00
2024-01-04T23:56:07.904Z,7.70
